sensor_id;sensor_type;location;lat;lon;timestamp;pressure;altitude;pressure_sealevel;temperature;humidity
31717;BME280;18301;51.076;17.046;2022-07-03T00:04:22;100763.84;;;18.42;67.47
31717;BME280;18301;51.076;17.046;2022-07-03T00:09:24;100769.75;;;18.37;67.91
31717;BME280;18301;51.076;17.046;2022-07-03T00:14:25;100767.00;;;18.37;68.07
31717;BME280;18301;51.076;17.046;2022-07-03T00:19:27;100775.16;;;18.29;68.41
31717;BME280;18301;51.076;17.046;2022-07-03T00:24:40;100791.44;;;18.21;68.96
31717;BME280;18301;51.076;17.046;2022-07-03T00:29:43;100784.25;;;18.20;69.16
31717;BME280;18301;51.076;17.046;2022-07-03T00:34:47;100783.84;;;18.14;69.22
31717;BME280;18301;51.076;17.046;2022-07-03T00:39:51;100786.72;;;18.13;69.58
31717;BME280;18301;51.076;17.046;2022-07-03T00:44:55;100780.16;;;18.06;69.73
31717;BME280;18301;51.076;17.046;2022-07-03T00:49:57;100771.84;;;18.07;69.72
31717;BME280;18301;51.076;17.046;2022-07-03T00:55:00;100770.41;;;18.03;69.82
31717;BME280;18301;51.076;17.046;2022-07-03T01:00:02;100763.84;;;17.96;70.03
31717;BME280;18301;51.076;17.046;2022-07-03T01:27:02;100749.72;;;17.63;71.41
31717;BME280;18301;51.076;17.046;2022-07-03T01:32:06;100735.22;;;17.63;71.37
31717;BME280;18301;51.076;17.046;2022-07-03T01:37:09;100720.00;;;17.60;71.41
31717;BME280;18301;51.076;17.046;2022-07-03T01:42:13;100726.94;;;17.55;71.83
31717;BME280;18301;51.076;17.046;2022-07-03T01:47:15;100724.91;;;17.57;71.79
31717;BME280;18301;51.076;17.046;2022-07-03T01:52:19;100723.75;;;17.59;71.98
31717;BME280;18301;51.076;17.046;2022-07-03T01:57:43;100711.75;;;17.52;72.10
31717;BME280;18301;51.076;17.046;2022-07-03T02:03:02;100705.44;;;17.42;72.71
31717;BME280;18301;51.076;17.046;2022-07-03T02:13:22;100711.25;;;17.29;73.28
31717;BME280;18301;51.076;17.046;2022-07-03T02:18:29;100713.28;;;17.17;73.50
31717;BME280;18301;51.076;17.046;2022-07-03T02:23:37;100706.41;;;17.13;73.91
31717;BME280;18301;51.076;17.046;2022-07-03T02:28:50;100714.31;;;17.16;74.08
31717;BME280;18301;51.076;17.046;2022-07-03T02:33:56;100720.66;;;17.07;74.51
31717;BME280;18301;51.076;17.046;2022-07-03T02:38:59;100728.81;;;17.07;74.50
31717;BME280;18301;51.076;17.046;2022-07-03T02:44:14;100722.25;;;17.00;74.76
31717;BME280;18301;51.076;17.046;2022-07-03T02:54:44;100729.25;;;17.02;74.97
31717;BME280;18301;51.076;17.046;2022-07-03T02:59:57;100711.66;;;16.97;75.09
31717;BME280;18301;51.076;17.046;2022-07-03T03:05:09;100711.78;;;16.95;75.00
31717;BME280;18301;51.076;17.046;2022-07-03T03:10:14;100713.34;;;16.98;74.96
31717;BME280;18301;51.076;17.046;2022-07-03T03:15:20;100715.66;;;16.93;75.49
31717;BME280;18301;51.076;17.046;2022-07-03T03:20:27;100721.53;;;16.98;75.29
31717;BME280;18301;51.076;17.046;2022-07-03T03:25:29;100727.41;;;17.03;75.46
31717;BME280;18301;51.076;17.046;2022-07-03T03:30:30;100724.50;;;17.14;75.64
31717;BME280;18301;51.076;17.046;2022-07-03T03:35:32;100719.00;;;17.24;74.95
31717;BME280;18301;51.076;17.046;2022-07-03T03:40:34;100721.44;;;17.37;75.34
31717;BME280;18301;51.076;17.046;2022-07-03T03:45:36;100713.63;;;17.42;74.91
31717;BME280;18301;51.076;17.046;2022-07-03T03:50:37;100704.84;;;17.48;74.70
31717;BME280;18301;51.076;17.046;2022-07-03T03:56:02;100703.09;;;17.57;74.39
31717;BME280;18301;51.076;17.046;2022-07-03T04:01:06;100704.06;;;17.65;74.58
31717;BME280;18301;51.076;17.046;2022-07-03T04:06:08;100684.53;;;17.88;73.78
31717;BME280;18301;51.076;17.046;2022-07-03T04:11:09;100701.13;;;18.04;73.53
31717;BME280;18301;51.076;17.046;2022-07-03T04:16:11;100706.22;;;18.17;73.05
31717;BME280;18301;51.076;17.046;2022-07-03T04:21:13;100698.31;;;18.14;73.07
31717;BME280;18301;51.076;17.046;2022-07-03T04:26:15;100699.59;;;18.20;73.33
31717;BME280;18301;51.076;17.046;2022-07-03T04:31:16;100709.28;;;18.32;73.43
31717;BME280;18301;51.076;17.046;2022-07-03T04:36:18;100706.28;;;18.43;72.89
31717;BME280;18301;51.076;17.046;2022-07-03T04:41:20;100703.00;;;18.57;72.95
31717;BME280;18301;51.076;17.046;2022-07-03T04:46:21;100719.31;;;18.67;72.80
31717;BME280;18301;51.076;17.046;2022-07-03T04:51:24;100716.91;;;18.82;72.57
31717;BME280;18301;51.076;17.046;2022-07-03T04:56:26;100711.06;;;19.03;72.85
31717;BME280;18301;51.076;17.046;2022-07-03T05:01:27;100713.13;;;19.35;72.69
31717;BME280;18301;51.076;17.046;2022-07-03T05:06:29;100709.81;;;19.49;71.53
31717;BME280;18301;51.076;17.046;2022-07-03T05:11:30;100710.19;;;19.63;71.56
31717;BME280;18301;51.076;17.046;2022-07-03T05:16:33;100694.25;;;19.92;71.25
31717;BME280;18301;51.076;17.046;2022-07-03T05:21:34;100703.34;;;20.09;70.66
31717;BME280;18301;51.076;17.046;2022-07-03T05:26:36;100702.22;;;20.36;70.51
31717;BME280;18301;51.076;17.046;2022-07-03T05:31:37;100687.16;;;20.49;70.30
31717;BME280;18301;51.076;17.046;2022-07-03T05:36:39;100687.19;;;20.57;69.77
31717;BME280;18301;51.076;17.046;2022-07-03T05:41:40;100693.69;;;20.56;70.12
31717;BME280;18301;51.076;17.046;2022-07-03T05:46:42;100696.44;;;20.72;69.44
31717;BME280;18301;51.076;17.046;2022-07-03T05:51:43;100702.44;;;20.76;69.17
31717;BME280;18301;51.076;17.046;2022-07-03T05:56:45;100703.59;;;20.89;68.63
31717;BME280;18301;51.076;17.046;2022-07-03T06:01:47;100701.56;;;20.91;69.24
31717;BME280;18301;51.076;17.046;2022-07-03T06:06:48;100697.88;;;21.24;69.23
31717;BME280;18301;51.076;17.046;2022-07-03T06:11:50;100702.75;;;21.61;68.71
31717;BME280;18301;51.076;17.046;2022-07-03T06:16:51;100703.06;;;21.74;66.58
31717;BME280;18301;51.076;17.046;2022-07-03T06:21:53;100695.00;;;22.04;67.85
31717;BME280;18301;51.076;17.046;2022-07-03T06:26:54;100696.59;;;22.29;65.21
31717;BME280;18301;51.076;17.046;2022-07-03T06:31:56;100694.78;;;22.45;64.55
31717;BME280;18301;51.076;17.046;2022-07-03T06:36:58;100680.47;;;22.49;65.30
31717;BME280;18301;51.076;17.046;2022-07-03T06:41:59;100683.94;;;22.66;64.39
31717;BME280;18301;51.076;17.046;2022-07-03T06:47:01;100683.78;;;22.83;63.27
31717;BME280;18301;51.076;17.046;2022-07-03T06:52:05;100690.91;;;22.92;62.84
31717;BME280;18301;51.076;17.046;2022-07-03T06:57:07;100683.75;;;23.06;62.64
31717;BME280;18301;51.076;17.046;2022-07-03T07:02:08;100682.38;;;23.25;62.00
31717;BME280;18301;51.076;17.046;2022-07-03T07:07:10;100680.94;;;23.29;60.87
31717;BME280;18301;51.076;17.046;2022-07-03T07:12:11;100673.59;;;23.36;61.79
31717;BME280;18301;51.076;17.046;2022-07-03T07:17:13;100666.13;;;23.30;61.04
31717;BME280;18301;51.076;17.046;2022-07-03T07:22:14;100661.63;;;22.99;61.43
31717;BME280;18301;51.076;17.046;2022-07-03T07:27:16;100657.91;;;22.92;60.59
31717;BME280;18301;51.076;17.046;2022-07-03T07:32:18;100650.63;;;23.14;60.00
31717;BME280;18301;51.076;17.046;2022-07-03T07:37:19;100652.84;;;23.18;60.85
31717;BME280;18301;51.076;17.046;2022-07-03T07:42:21;100646.16;;;23.57;59.63
31717;BME280;18301;51.076;17.046;2022-07-03T07:47:22;100649.59;;;23.30;57.98
31717;BME280;18301;51.076;17.046;2022-07-03T07:52:24;100646.09;;;23.06;58.75
31717;BME280;18301;51.076;17.046;2022-07-03T07:57:33;100646.56;;;23.25;58.02
31717;BME280;18301;51.076;17.046;2022-07-03T08:02:36;100635.59;;;23.76;57.72
31717;BME280;18301;51.076;17.046;2022-07-03T08:07:56;100645.75;;;23.60;56.21
31717;BME280;18301;51.076;17.046;2022-07-03T08:12:57;100635.81;;;23.74;55.60
31717;BME280;18301;51.076;17.046;2022-07-03T08:17:59;100625.22;;;24.14;54.16
31717;BME280;18301;51.076;17.046;2022-07-03T08:23:01;100637.34;;;24.41;54.77
31717;BME280;18301;51.076;17.046;2022-07-03T08:28:03;100637.72;;;24.81;49.74
31717;BME280;18301;51.076;17.046;2022-07-03T08:33:04;100633.97;;;24.89;49.67
31717;BME280;18301;51.076;17.046;2022-07-03T08:38:06;100630.78;;;25.20;47.88
31717;BME280;18301;51.076;17.046;2022-07-03T08:43:08;100634.25;;;25.29;48.85
31717;BME280;18301;51.076;17.046;2022-07-03T08:48:10;100619.59;;;25.28;48.31
31717;BME280;18301;51.076;17.046;2022-07-03T08:53:12;100621.78;;;25.11;47.72
31717;BME280;18301;51.076;17.046;2022-07-03T08:58:14;100618.88;;;25.13;49.02
31717;BME280;18301;51.076;17.046;2022-07-03T09:03:16;100615.41;;;25.11;48.67
31717;BME280;18301;51.076;17.046;2022-07-03T09:08:18;100607.59;;;24.86;46.53
31717;BME280;18301;51.076;17.046;2022-07-03T09:13:20;100587.97;;;25.37;49.68
31717;BME280;18301;51.076;17.046;2022-07-03T09:18:42;100596.47;;;26.04;47.86
31717;BME280;18301;51.076;17.046;2022-07-03T09:23:44;100593.53;;;25.44;46.71
31717;BME280;18301;51.076;17.046;2022-07-03T09:28:51;100586.41;;;24.93;48.56
31717;BME280;18301;51.076;17.046;2022-07-03T09:34:01;100582.88;;;24.71;48.36
31717;BME280;18301;51.076;17.046;2022-07-03T09:39:19;100582.50;;;24.53;48.40
31717;BME280;18301;51.076;17.046;2022-07-03T09:49:51;100568.03;;;24.72;50.67
31717;BME280;18301;51.076;17.046;2022-07-03T10:00:19;100566.09;;;24.66;48.12
31717;BME280;18301;51.076;17.046;2022-07-03T10:05:32;100565.38;;;24.57;48.59
31717;BME280;18301;51.076;17.046;2022-07-03T10:10:36;100556.44;;;24.90;48.38
31717;BME280;18301;51.076;17.046;2022-07-03T10:15:39;100557.69;;;25.16;48.33
31717;BME280;18301;51.076;17.046;2022-07-03T10:20:48;100544.00;;;25.49;48.06
31717;BME280;18301;51.076;17.046;2022-07-03T10:25:50;100537.88;;;25.54;46.74
31717;BME280;18301;51.076;17.046;2022-07-03T10:30:51;100531.47;;;25.46;46.43
31717;BME280;18301;51.076;17.046;2022-07-03T10:35:55;100523.13;;;25.33;48.41
31717;BME280;18301;51.076;17.046;2022-07-03T10:41:30;100528.84;;;25.86;47.25
31717;BME280;18301;51.076;17.046;2022-07-03T10:46:53;100519.69;;;26.06;44.74
31717;BME280;18301;51.076;17.046;2022-07-03T10:52:03;100509.47;;;26.13;45.35
31717;BME280;18301;51.076;17.046;2022-07-03T10:57:11;100498.84;;;26.50;44.69
31717;BME280;18301;51.076;17.046;2022-07-03T11:07:22;100490.22;;;26.84;43.62
31717;BME280;18301;51.076;17.046;2022-07-03T11:18:10;100483.78;;;27.04;43.37
31717;BME280;18301;51.076;17.046;2022-07-03T11:33:46;100471.00;;;27.16;43.28
31717;BME280;18301;51.076;17.046;2022-07-03T11:44:06;100458.53;;;27.32;43.57
31717;BME280;18301;51.076;17.046;2022-07-03T11:49:16;100464.47;;;27.36;41.49
31717;BME280;18301;51.076;17.046;2022-07-03T11:54:17;100456.06;;;27.11;42.81
31717;BME280;18301;51.076;17.046;2022-07-03T11:59:19;100445.19;;;27.09;42.62
31717;BME280;18301;51.076;17.046;2022-07-03T12:04:24;100441.06;;;27.31;42.15
31717;BME280;18301;51.076;17.046;2022-07-03T12:09:31;100438.88;;;27.40;42.31
31717;BME280;18301;51.076;17.046;2022-07-03T12:19:38;100422.72;;;27.30;42.21
31717;BME280;18301;51.076;17.046;2022-07-03T12:24:55;100417.72;;;27.14;40.92
31717;BME280;18301;51.076;17.046;2022-07-03T12:29:57;100416.19;;;27.25;42.20
31717;BME280;18301;51.076;17.046;2022-07-03T12:35:00;100415.94;;;27.26;41.96
31717;BME280;18301;51.076;17.046;2022-07-03T12:40:02;100407.72;;;27.45;41.80
31717;BME280;18301;51.076;17.046;2022-07-03T12:45:04;100410.28;;;27.46;41.09
31717;BME280;18301;51.076;17.046;2022-07-03T12:50:08;100414.34;;;27.44;41.39
31717;BME280;18301;51.076;17.046;2022-07-03T12:55:22;100407.72;;;27.45;40.96
31717;BME280;18301;51.076;17.046;2022-07-03T13:00:24;100413.44;;;27.50;40.67
31717;BME280;18301;51.076;17.046;2022-07-03T13:05:26;100392.88;;;27.33;42.59
31717;BME280;18301;51.076;17.046;2022-07-03T13:10:27;100392.25;;;27.62;43.86
31717;BME280;18301;51.076;17.046;2022-07-03T13:15:29;100379.53;;;27.80;42.55
31717;BME280;18301;51.076;17.046;2022-07-03T13:20:32;100381.75;;;27.96;41.94
31717;BME280;18301;51.076;17.046;2022-07-03T13:25:36;100371.50;;;27.96;42.31
31717;BME280;18301;51.076;17.046;2022-07-03T13:30:41;100370.25;;;28.11;42.46
31717;BME280;18301;51.076;17.046;2022-07-03T13:35:43;100373.84;;;28.18;41.19
31717;BME280;18301;51.076;17.046;2022-07-03T13:40:45;100364.41;;;27.75;42.18
31717;BME280;18301;51.076;17.046;2022-07-03T13:45:46;100365.31;;;27.94;41.38
31717;BME280;18301;51.076;17.046;2022-07-03T13:50:48;100361.38;;;27.84;43.17
31717;BME280;18301;51.076;17.046;2022-07-03T13:55:49;100349.91;;;27.98;41.63
31717;BME280;18301;51.076;17.046;2022-07-03T14:00:51;100339.69;;;27.99;42.04
31717;BME280;18301;51.076;17.046;2022-07-03T14:05:53;100336.56;;;27.89;39.94
31717;BME280;18301;51.076;17.046;2022-07-03T14:10:55;100343.91;;;27.76;41.55
31717;BME280;18301;51.076;17.046;2022-07-03T14:15:56;100333.19;;;27.87;41.46
31717;BME280;18301;51.076;17.046;2022-07-03T14:20:58;100326.72;;;27.93;41.57
31717;BME280;18301;51.076;17.046;2022-07-03T14:25:59;100326.38;;;27.83;40.31
31717;BME280;18301;51.076;17.046;2022-07-03T14:31:01;100322.94;;;27.87;40.02
31717;BME280;18301;51.076;17.046;2022-07-03T14:36:21;100313.91;;;27.92;41.66
31717;BME280;18301;51.076;17.046;2022-07-03T14:41:42;100299.97;;;27.98;40.88
31717;BME280;18301;51.076;17.046;2022-07-03T14:46:44;100312.63;;;27.94;40.17
31717;BME280;18301;51.076;17.046;2022-07-03T14:51:46;100314.06;;;27.79;41.39
31717;BME280;18301;51.076;17.046;2022-07-03T14:56:55;100312.31;;;27.84;41.08
31717;BME280;18301;51.076;17.046;2022-07-03T15:01:58;100307.66;;;27.78;40.72
31717;BME280;18301;51.076;17.046;2022-07-03T15:07:00;100306.84;;;27.77;40.60
31717;BME280;18301;51.076;17.046;2022-07-03T15:12:03;100309.28;;;27.86;39.28
31717;BME280;18301;51.076;17.046;2022-07-03T15:17:24;100307.16;;;27.88;39.86
31717;BME280;18301;51.076;17.046;2022-07-03T15:22:26;100294.38;;;27.87;38.10
31717;BME280;18301;51.076;17.046;2022-07-03T15:27:28;100293.56;;;27.80;38.51
31717;BME280;18301;51.076;17.046;2022-07-03T15:32:30;100299.69;;;27.63;39.38
31717;BME280;18301;51.076;17.046;2022-07-03T15:37:45;100286.56;;;27.52;39.80
31717;BME280;18301;51.076;17.046;2022-07-03T15:48:00;100281.84;;;27.52;39.76
31717;BME280;18301;51.076;17.046;2022-07-03T15:53:05;100269.59;;;27.42;39.48
31717;BME280;18301;51.076;17.046;2022-07-03T15:58:12;100264.41;;;27.27;38.56
31717;BME280;18301;51.076;17.046;2022-07-03T16:03:27;100258.66;;;27.28;39.86
31717;BME280;18301;51.076;17.046;2022-07-03T16:08:31;100265.88;;;27.29;39.87
31717;BME280;18301;51.076;17.046;2022-07-03T16:13:33;100265.41;;;27.33;39.88
31717;BME280;18301;51.076;17.046;2022-07-03T16:18:35;100260.44;;;27.16;39.78
31717;BME280;18301;51.076;17.046;2022-07-03T16:23:38;100250.84;;;27.12;39.90
31717;BME280;18301;51.076;17.046;2022-07-03T16:28:40;100254.81;;;26.98;40.13
31717;BME280;18301;51.076;17.046;2022-07-03T16:33:45;100252.13;;;26.84;40.52
31717;BME280;18301;51.076;17.046;2022-07-03T16:38:57;100253.44;;;26.82;40.52
31717;BME280;18301;51.076;17.046;2022-07-03T16:44:09;100254.50;;;26.81;40.83
31717;BME280;18301;51.076;17.046;2022-07-03T16:49:12;100257.75;;;26.71;41.68
31717;BME280;18301;51.076;17.046;2022-07-03T16:54:15;100246.03;;;26.69;41.26
31717;BME280;18301;51.076;17.046;2022-07-03T16:59:18;100250.56;;;26.63;41.61
31717;BME280;18301;51.076;17.046;2022-07-03T17:04:20;100249.34;;;26.53;42.24
31717;BME280;18301;51.076;17.046;2022-07-03T17:09:22;100247.22;;;26.41;42.49
31717;BME280;18301;51.076;17.046;2022-07-03T17:14:24;100244.53;;;26.28;43.27
31717;BME280;18301;51.076;17.046;2022-07-03T17:19:26;100248.63;;;26.19;43.32
31717;BME280;18301;51.076;17.046;2022-07-03T17:24:29;100243.34;;;26.17;43.12
31717;BME280;18301;51.076;17.046;2022-07-03T17:29:45;100238.66;;;26.18;43.24
31717;BME280;18301;51.076;17.046;2022-07-03T17:34:49;100239.72;;;26.10;43.44
31717;BME280;18301;51.076;17.046;2022-07-03T17:39:52;100252.94;;;26.08;43.57
31717;BME280;18301;51.076;17.046;2022-07-03T17:44:55;100248.06;;;26.04;43.43
31717;BME280;18301;51.076;17.046;2022-07-03T17:49:59;100248.50;;;26.01;43.67
31717;BME280;18301;51.076;17.046;2022-07-03T17:55:06;100250.44;;;25.93;43.68
31717;BME280;18301;51.076;17.046;2022-07-03T18:00:11;100244.50;;;25.90;43.92
31717;BME280;18301;51.076;17.046;2022-07-03T18:05:13;100246.22;;;25.84;44.33
31717;BME280;18301;51.076;17.046;2022-07-03T18:10:18;100237.47;;;25.81;44.94
31717;BME280;18301;51.076;17.046;2022-07-03T18:15:31;100236.00;;;25.78;44.73
31717;BME280;18301;51.076;17.046;2022-07-03T18:20:35;100241.13;;;25.68;44.90
31717;BME280;18301;51.076;17.046;2022-07-03T18:25:45;100240.09;;;25.56;45.96
31717;BME280;18301;51.076;17.046;2022-07-03T18:30:47;100240.69;;;25.58;45.53
31717;BME280;18301;51.076;17.046;2022-07-03T18:35:51;100232.22;;;25.53;45.83
31717;BME280;18301;51.076;17.046;2022-07-03T18:40:52;100235.63;;;25.48;45.89
31717;BME280;18301;51.076;17.046;2022-07-03T18:45:54;100228.84;;;25.37;45.99
31717;BME280;18301;51.076;17.046;2022-07-03T18:56:10;100229.09;;;25.16;46.81
31717;BME280;18301;51.076;17.046;2022-07-03T19:01:14;100236.88;;;25.06;46.88
31717;BME280;18301;51.076;17.046;2022-07-03T19:06:22;100243.06;;;24.94;47.25
31717;BME280;18301;51.076;17.046;2022-07-03T19:11:39;100249.41;;;24.82;47.76
31717;BME280;18301;51.076;17.046;2022-07-03T19:16:43;100257.66;;;24.75;48.19
31717;BME280;18301;51.076;17.046;2022-07-03T19:21:45;100252.56;;;24.65;48.79
31717;BME280;18301;51.076;17.046;2022-07-03T19:26:47;100259.31;;;24.49;49.27
31717;BME280;18301;51.076;17.046;2022-07-03T19:31:49;100252.94;;;24.42;49.76
31717;BME280;18301;51.076;17.046;2022-07-03T19:36:50;100261.34;;;24.34;50.15
31717;BME280;18301;51.076;17.046;2022-07-03T19:41:52;100259.59;;;24.20;51.04
31717;BME280;18301;51.076;17.046;2022-07-03T19:46:53;100263.78;;;24.09;50.94
31717;BME280;18301;51.076;17.046;2022-07-03T19:52:15;100266.28;;;23.97;50.92
31717;BME280;18301;51.076;17.046;2022-07-03T19:57:16;100265.00;;;23.93;51.06
31717;BME280;18301;51.076;17.046;2022-07-03T20:02:18;100260.28;;;23.87;50.76
31717;BME280;18301;51.076;17.046;2022-07-03T20:07:20;100265.16;;;23.85;51.33
31717;BME280;18301;51.076;17.046;2022-07-03T20:12:23;100267.44;;;23.75;51.71
31717;BME280;18301;51.076;17.046;2022-07-03T20:17:24;100266.44;;;23.61;52.45
31717;BME280;18301;51.076;17.046;2022-07-03T20:22:26;100256.22;;;23.55;52.65
31717;BME280;18301;51.076;17.046;2022-07-03T20:27:28;100270.63;;;23.50;53.19
31717;BME280;18301;51.076;17.046;2022-07-03T20:32:34;100260.59;;;23.42;53.92
31717;BME280;18301;51.076;17.046;2022-07-03T20:37:36;100263.31;;;23.36;54.54
31717;BME280;18301;51.076;17.046;2022-07-03T20:42:40;100252.19;;;23.23;53.86
31717;BME280;18301;51.076;17.046;2022-07-03T20:47:41;100258.53;;;23.23;54.04
31717;BME280;18301;51.076;17.046;2022-07-03T20:52:47;100263.38;;;23.21;54.44
31717;BME280;18301;51.076;17.046;2022-07-03T20:57:49;100264.84;;;23.17;54.36
31717;BME280;18301;51.076;17.046;2022-07-03T21:02:50;100268.22;;;23.12;54.18
31717;BME280;18301;51.076;17.046;2022-07-03T21:07:52;100269.47;;;23.10;53.93
31717;BME280;18301;51.076;17.046;2022-07-03T21:12:53;100262.84;;;23.04;53.79
31717;BME280;18301;51.076;17.046;2022-07-03T21:17:55;100257.72;;;23.01;53.57
31717;BME280;18301;51.076;17.046;2022-07-03T21:22:56;100256.97;;;22.92;53.65
31717;BME280;18301;51.076;17.046;2022-07-03T21:27:58;100254.44;;;22.91;53.54
31717;BME280;18301;51.076;17.046;2022-07-03T21:32:59;100250.75;;;22.84;54.39
31717;BME280;18301;51.076;17.046;2022-07-03T21:38:01;100246.25;;;22.76;54.77
31717;BME280;18301;51.076;17.046;2022-07-03T21:43:03;100244.06;;;22.71;54.90
31717;BME280;18301;51.076;17.046;2022-07-03T21:48:05;100252.47;;;22.63;55.58
31717;BME280;18301;51.076;17.046;2022-07-03T21:53:07;100249.84;;;22.55;55.82
31717;BME280;18301;51.076;17.046;2022-07-03T21:58:09;100239.34;;;22.44;56.46
31717;BME280;18301;51.076;17.046;2022-07-03T22:03:11;100243.25;;;22.35;56.97
31717;BME280;18301;51.076;17.046;2022-07-03T22:08:13;100240.63;;;22.26;56.99
31717;BME280;18301;51.076;17.046;2022-07-03T22:13:20;100239.50;;;22.21;57.39
31717;BME280;18301;51.076;17.046;2022-07-03T22:18:22;100234.91;;;22.13;57.67
31717;BME280;18301;51.076;17.046;2022-07-03T22:23:24;100230.19;;;22.07;57.92
31717;BME280;18301;51.076;17.046;2022-07-03T22:28:25;100225.00;;;21.97;58.26
31717;BME280;18301;51.076;17.046;2022-07-03T22:33:29;100233.00;;;21.92;58.45
31717;BME280;18301;51.076;17.046;2022-07-03T22:38:31;100223.63;;;21.87;58.59
31717;BME280;18301;51.076;17.046;2022-07-03T22:43:32;100224.09;;;21.75;59.28
31717;BME280;18301;51.076;17.046;2022-07-03T22:48:34;100218.88;;;21.51;60.12
31717;BME280;18301;51.076;17.046;2022-07-03T22:53:35;100215.38;;;21.42;60.33
31717;BME280;18301;51.076;17.046;2022-07-03T22:58:37;100212.03;;;21.32;60.61
31717;BME280;18301;51.076;17.046;2022-07-03T23:03:38;100209.94;;;21.19;61.69
31717;BME280;18301;51.076;17.046;2022-07-03T23:08:40;100205.56;;;21.10;62.18
31717;BME280;18301;51.076;17.046;2022-07-03T23:13:41;100208.00;;;21.05;62.30
31717;BME280;18301;51.076;17.046;2022-07-03T23:18:43;100207.16;;;21.04;62.53
31717;BME280;18301;51.076;17.046;2022-07-03T23:23:44;100217.34;;;20.96;62.62
31717;BME280;18301;51.076;17.046;2022-07-03T23:28:46;100200.16;;;21.02;62.79
31717;BME280;18301;51.076;17.046;2022-07-03T23:33:48;100195.13;;;21.05;62.68
31717;BME280;18301;51.076;17.046;2022-07-03T23:38:49;100195.81;;;21.07;62.37
31717;BME280;18301;51.076;17.046;2022-07-03T23:43:51;100196.50;;;21.09;62.42
31717;BME280;18301;51.076;17.046;2022-07-03T23:48:52;100202.44;;;21.13;62.32
31717;BME280;18301;51.076;17.046;2022-07-03T23:54:12;100199.78;;;21.05;62.33
31717;BME280;18301;51.076;17.046;2022-07-03T23:59:14;100197.19;;;20.88;62.42
